Aviation Digital Data Service (ADDS)

Output produced by METARs form (2338 UTC 30 June 2022)
found at http://aviationweather.gov/metar/data/
 
KEMT 302245Z 20010G14KT 10SM CLR 33/14 A2994
KPOC 302247Z 28010G15KT 10SM CLR 33/09 A2997
KFUL 302253Z 17007KT 10SM CLR 29/12 A2993 RMK AO2 SLP135 T02940122
KBUR 302253Z 18007KT 10SM CLR 33/13 A2995 RMK AO2 SLP126 T03280133
KBUR 302329Z 0100/0124 17010KT P6SM SKC 
     FM010400 12006KT P6SM SKC 
     FM011000 12006KT 5SM BR OVC007 
     FM011600 VRB03KT 6SM HZ SKC 
     FM011800 18008KT P6SM SKC
       
KONT 302253Z 27012G20KT 10SM FEW110 FEW200 34/11 A2994 RMK AO2 SLP121 T03440106
KONT 302325Z 0100/0206 27013KT P6SM FEW110 FEW200 
     FM010400 24005KT P6SM SKC 
     FM012000 26011G18KT P6SM SKC 
     FM020400 25005KT P6SM SKC
       
KCNO 302253Z 25013KT 10SM FEW110 FEW200 35/12 A2994 RMK AO2 SLP133 T03500117
KAJO 302256Z AUTO 28013G19KT 10SM CLR 32/17 A2993 RMK AO2 SLP126 T03220172
KLGB 302253Z 18009KT 10SM CLR 28/14 A2994 RMK AO2 SLP139 T02780144
KLGB 302329Z 0100/0124 30008KT P6SM SKC 
     FM010600 VRB03KT P6SM OVC008 
     FM011200 VRB03KT P6SM OVC012 
     FM011700 18008KT P6SM SCT015
       
KTOA 302247Z 27017KT 10SM FEW080 24/17 A2996
KHHR 302253Z 26010KT 10SM CLR 24/16 A2996 RMK AO2 SLP145 T02440161
KLAX 302253Z 26013KT 10SM FEW150 23/16 A2997 RMK AO2 SLP146 T02280161
KLAX 302329Z 0100/0206 26012KT P6SM FEW150 
     FM010500 26006KT P6SM OVC008 
     FM011200 VRB03KT P6SM OVC012 
     FM011700 26006KT P6SM SCT015 
     FM012000 26012KT P6SM SKC 
     FM020300 26008KT P6SM BKN008
       
KAVX 302251Z AUTO 25007KT 9SM CLR 26/14 A3002 RMK AO2 SLP145 T02560144
KSMO 302251Z AUTO 24010KT 10SM CLR 22/16 A2996 RMK AO2 SLP144 T02220161
KSMO 302329Z 0100/0124 23010KT P6SM SKC 
     FM010500 VRB03KT P6SM OVC006 
     FM011200 VRB03KT P6SM OVC012 
     FM011700 23008KT P6SM SKC
       
KCMA 302255Z 26010KT 8SM CLR 24/14 A2997 RMK AO2 SLP156 T02440144
KCMA 302329Z 0100/0124 24008KT P6SM SKC 
     FM010300 VRB03KT P6SM SKC 
     FM010700 VRB03KT P6SM OVC008 
     FM011700 VRB03KT P6SM SCT010 
     FM011900 23008KT P6SM SKC
       
KOXR 302251Z 27012KT 10SM CLR 21/16 A2997 RMK AO2 SLP149 T02110161
KOXR 302329Z 0100/0124 26012KT P6SM SKC 
     FM010400 28006KT P6SM SKC 
     FM010600 VRB03KT P6SM OVC008 
     FM011800 26006KT P6SM SCT010 
     FM012100 26010KT P6SM SKC
       
KRAL 302253Z 28008KT 250V330 10SM CLR 35/11 A2993 RMK AO2 SLP117 T03500111
KRIV 302258Z AUTO 32011KT 10SM CLR 35/11 A2996 RMK AO2 SLP129 T03460110
TAF KRIV 302010Z 3020/0202 32009KT 9999 FEW120 FEW150 510006 QNH2995INS 
     TEMPO 3021/0102 32012G20KT 
     BECMG 0104/0105 VRB06KT 9999 FEW180 QNH2999INS 
     BECMG 0119/0120 32009KT 9999 FEW180 QNH2992INS 
     TEMPO 0121/0202 32012G20KT TX35/3022Z TN18/0113Z
       
KF70 302335Z AUTO 22010G16KT 10SM CLR 32/03 A2996 RMK AO2
KF70 302315Z AUTO 20012G15KT 10SM CLR 33/02 A2997 RMK AO2
KF70 302255Z AUTO 22011G16KT 10SM CLR 33/02 A2997 RMK AO2
KRNM 302253Z 28009KT 10SM CLR 32/12 A2999 RMK AO2 SLP138 T03220122
KCRQ 302253Z 26007KT 230V300 10SM CLR 23/17 A2996 RMK AO2 SLP143 T02330172
KCRQ 302325Z 0100/0124 26007KT P6SM SCT150 
     FM010200 26006KT P6SM SCT010 
     FM010600 VRB04KT P6SM BKN009 
     FM011630 VRB04KT P6SM SCT010 
     FM012000 29008KT P6SM SKC
       
KOKB 302252Z AUTO 25009KT 8SM CLR 25/17 A2996 RMK AO2 SLP143 T02500172
KIZA 302315Z AUTO 26011KT 10SM CLR 28/09 A2998 RMK AO2
KIZA 302255Z AUTO 27010KT 10SM CLR 29/09 A2998 RMK AO2